createdAt,value
2023-07-24T00:01:00.769Z,2.80
2023-07-24T00:03:27.254Z,3.10
2023-07-24T00:05:53.519Z,3.00
2023-07-24T00:08:19.985Z,3.03
2023-07-24T00:10:46.242Z,3.30
2023-07-24T00:13:12.505Z,3.85
2023-07-24T00:15:39.507Z,3.62
2023-07-24T00:18:05.798Z,3.75
2023-07-24T00:20:32.041Z,3.95
2023-07-24T00:22:58.312Z,3.67
2023-07-24T00:25:24.638Z,3.78
2023-07-24T00:27:51.064Z,3.20
2023-07-24T00:30:17.356Z,3.00
2023-07-24T00:32:43.645Z,3.00
2023-07-24T00:35:09.967Z,2.75
2023-07-24T00:37:37.173Z,2.80
2023-07-24T00:40:04.413Z,3.05
2023-07-24T00:42:30.731Z,3.12
2023-07-24T00:44:57.030Z,3.20
2023-07-24T00:47:23.266Z,2.87
2023-07-24T00:49:49.585Z,2.55
2023-07-24T00:52:16.232Z,2.87
2023-07-24T00:54:42.506Z,2.60
2023-07-24T00:57:08.753Z,2.90
2023-07-24T00:59:34.998Z,2.55
2023-07-24T01:02:01.291Z,2.67
2023-07-24T01:04:27.558Z,3.10
2023-07-24T01:06:54.288Z,3.45
2023-07-24T01:09:20.547Z,4.03
2023-07-24T01:13:19.265Z,7.20
2023-07-24T01:16:03.776Z,6.37
2023-07-24T01:18:30.877Z,7.60
2023-07-24T01:20:57.742Z,7.75
2023-07-24T01:26:56.234Z,8.88
2023-07-24T01:29:22.518Z,7.82
2023-07-24T01:31:48.799Z,8.60
2023-07-24T01:34:15.109Z,8.43
2023-07-24T01:36:41.328Z,8.52
2023-07-24T01:39:07.564Z,8.38
2023-07-24T01:41:33.801Z,7.60
2023-07-24T01:44:00.328Z,6.40
2023-07-24T01:46:26.550Z,7.55
2023-07-24T01:48:53.040Z,7.65
2023-07-24T01:51:19.317Z,7.70
2023-07-24T01:53:45.763Z,8.02
2023-07-24T01:56:11.974Z,7.95
2023-07-24T01:58:38.190Z,8.07
2023-07-24T02:01:04.452Z,8.00
2023-07-24T02:03:30.840Z,7.85
2023-07-24T02:05:57.138Z,7.18
2023-07-24T02:08:23.381Z,7.32
2023-07-24T02:10:51.284Z,7.53
2023-07-24T02:13:17.513Z,7.30
2023-07-24T02:15:43.755Z,7.70
2023-07-24T02:18:09.997Z,7.65
2023-07-24T02:20:36.446Z,8.05
2023-07-24T02:23:02.771Z,8.65
2023-07-24T02:25:29.544Z,8.35
2023-07-24T02:27:55.809Z,8.75
2023-07-24T02:30:22.245Z,9.60
2023-07-24T02:32:48.519Z,9.75
2023-07-24T02:35:14.981Z,8.98
2023-07-24T02:37:41.230Z,8.05
2023-07-24T02:40:08.547Z,8.50
2023-07-24T02:42:34.815Z,8.18
2023-07-24T02:45:01.171Z,8.38
2023-07-24T02:47:27.436Z,8.18
2023-07-24T02:49:53.708Z,8.05
2023-07-24T02:52:19.945Z,8.48
2023-07-24T02:54:46.284Z,8.45
2023-07-24T02:57:12.499Z,8.80
2023-07-24T02:59:38.749Z,8.82
2023-07-24T03:02:05.309Z,8.55
2023-07-24T03:04:32.457Z,8.80
2023-07-24T03:06:58.739Z,8.57
2023-07-24T03:09:24.991Z,9.60
2023-07-24T03:11:51.297Z,10.00
2023-07-24T03:14:17.529Z,10.02
2023-07-24T03:16:43.853Z,8.45
2023-07-24T03:19:10.305Z,7.85
2023-07-24T03:21:36.614Z,7.93
2023-07-24T03:24:03.119Z,8.27
2023-07-24T03:26:29.649Z,7.62
2023-07-24T03:28:56.196Z,7.18
2023-07-24T03:31:22.691Z,7.40
2023-07-24T03:33:49.000Z,7.25
2023-07-24T03:36:15.432Z,7.20
2023-07-24T03:38:41.856Z,6.57
2023-07-24T03:41:08.104Z,7.25
2023-07-24T03:43:34.338Z,7.07
2023-07-24T03:46:00.614Z,7.85
2023-07-24T03:48:26.815Z,8.25
2023-07-24T03:50:59.272Z,8.27
2023-07-24T03:53:25.490Z,8.07
2023-07-24T03:55:51.828Z,7.72
2023-07-24T03:58:18.107Z,7.53
2023-07-24T04:00:44.871Z,7.10
2023-07-24T04:03:11.171Z,6.68
2023-07-24T04:05:37.762Z,8.10
2023-07-24T04:08:04.438Z,6.95
2023-07-24T04:10:31.416Z,4.90
2023-07-24T04:12:57.844Z,6.12
2023-07-24T04:15:24.192Z,7.55
2023-07-24T04:17:50.439Z,7.80
2023-07-24T04:20:17.101Z,6.62
2023-07-24T04:22:43.326Z,5.68
2023-07-24T04:25:09.622Z,5.00
2023-07-24T04:27:35.916Z,5.12
2023-07-24T04:30:02.227Z,6.25
2023-07-24T04:32:28.491Z,5.37
2023-07-24T04:34:54.735Z,3.40
2023-07-24T04:37:20.947Z,3.40
2023-07-24T04:39:47.163Z,3.12
2023-07-24T04:42:13.635Z,4.10
2023-07-24T04:44:39.880Z,3.40
2023-07-24T04:47:06.227Z,3.55
2023-07-24T04:49:33.251Z,3.75
2023-07-24T04:51:59.872Z,3.95
2023-07-24T04:54:26.101Z,4.37
2023-07-24T04:56:52.354Z,4.25
2023-07-24T04:59:18.635Z,4.68
2023-07-24T05:01:44.879Z,4.65
2023-07-24T05:04:11.185Z,4.50
2023-07-24T05:06:39.010Z,4.07
2023-07-24T05:09:05.453Z,3.67
2023-07-24T05:11:31.672Z,3.50
2023-07-24T05:13:58.051Z,3.35
2023-07-24T05:16:24.361Z,3.40
2023-07-24T05:18:50.578Z,3.83
2023-07-24T05:21:16.806Z,3.22
2023-07-24T05:23:43.120Z,4.28
2023-07-24T05:26:09.346Z,3.50
2023-07-24T05:28:35.580Z,3.87
2023-07-24T05:31:05.144Z,4.95
2023-07-24T05:33:31.805Z,5.15
2023-07-24T05:35:59.700Z,6.65
2023-07-24T05:38:26.088Z,5.75
2023-07-24T05:40:56.727Z,5.32
2023-07-24T05:43:22.944Z,5.65
2023-07-24T05:45:50.259Z,5.72
2023-07-24T05:48:16.548Z,6.35
2023-07-24T05:50:44.176Z,6.03
2023-07-24T05:53:10.478Z,5.53
2023-07-24T05:55:36.715Z,5.32
2023-07-24T05:58:02.957Z,5.03
2023-07-24T06:00:29.312Z,4.55
2023-07-24T06:02:57.224Z,4.18
2023-07-24T06:05:23.772Z,4.15
2023-07-24T06:07:50.047Z,5.40
2023-07-24T06:10:16.354Z,5.15
2023-07-24T06:12:42.594Z,6.43
2023-07-24T06:15:09.479Z,7.55
2023-07-24T06:17:35.783Z,8.00
2023-07-24T06:20:02.586Z,7.05
2023-07-24T06:22:28.839Z,6.95
2023-07-24T06:24:55.193Z,8.23
2023-07-24T06:27:21.546Z,8.95
2023-07-24T06:29:49.469Z,8.75
2023-07-24T06:32:19.423Z,7.95
2023-07-24T06:34:45.674Z,7.95
2023-07-24T06:37:22.284Z,8.25
2023-07-24T06:39:49.691Z,8.95
2023-07-24T06:42:16.029Z,7.70
2023-07-24T06:44:42.350Z,8.25
2023-07-24T06:47:08.644Z,8.98
2023-07-24T06:49:34.934Z,8.05
2023-07-24T06:52:01.392Z,7.65
2023-07-24T06:54:27.606Z,8.45
2023-07-24T06:56:53.881Z,7.40
2023-07-24T06:59:20.234Z,7.57
2023-07-24T07:01:46.463Z,8.55
2023-07-24T07:04:12.734Z,9.85
2023-07-24T07:06:39.478Z,7.78
2023-07-24T07:09:06.939Z,9.68
2023-07-24T07:11:33.184Z,8.00
2023-07-24T07:13:59.452Z,5.12
2023-07-24T07:16:25.716Z,3.22
2023-07-24T07:18:51.986Z,3.30
2023-07-24T07:21:18.241Z,4.10
2023-07-24T07:23:47.181Z,7.95
2023-07-24T07:26:13.893Z,8.65
2023-07-24T07:28:40.181Z,6.15
2023-07-24T07:31:06.567Z,4.32
2023-07-24T07:33:32.887Z,3.55
2023-07-24T07:35:59.899Z,6.10
2023-07-24T07:38:26.227Z,8.10
2023-07-24T07:40:52.538Z,6.95
2023-07-24T07:43:18.932Z,10.23
2023-07-24T07:45:45.235Z,7.40
2023-07-24T07:48:11.482Z,3.87
2023-07-24T07:50:37.781Z,6.82
2023-07-24T07:53:04.078Z,9.30
2023-07-24T07:55:30.493Z,15.55
2023-07-24T07:57:56.751Z,27.33
2023-07-24T08:00:23.027Z,9.00
2023-07-24T08:02:49.540Z,9.55
2023-07-24T08:05:20.991Z,12.35
2023-07-24T08:07:48.117Z,21.25
2023-07-24T08:10:15.615Z,19.33
2023-07-24T08:12:42.005Z,29.98
2023-07-24T08:15:09.681Z,28.38
2023-07-24T09:46:11.803Z,8.98
2023-07-24T09:51:25.182Z,19.50
2023-07-24T09:53:59.149Z,29.35
2023-07-24T09:56:35.073Z,32.25
2023-07-24T09:59:11.246Z,29.98
2023-07-24T10:01:38.088Z,16.70
2023-07-24T10:04:04.627Z,23.48
2023-07-24T10:06:32.634Z,29.98
2023-07-24T10:08:59.435Z,33.33
2023-07-24T10:11:26.099Z,33.58
2023-07-24T10:13:53.036Z,35.65
2023-07-24T10:16:19.485Z,35.65
2023-07-24T10:18:46.418Z,38.53
2023-07-24T10:21:12.897Z,31.50
2023-07-24T10:23:43.837Z,28.67
2023-07-24T10:26:10.363Z,41.97
2023-07-24T10:28:42.524Z,39.35
2023-07-24T10:31:31.599Z,27.65
2023-07-24T10:34:07.773Z,12.27
2023-07-24T10:36:37.311Z,10.02
2023-07-24T10:39:13.074Z,8.48
2023-07-24T10:41:40.524Z,9.10
2023-07-24T10:44:07.022Z,6.72
2023-07-24T10:46:52.038Z,9.10
2023-07-24T10:49:22.343Z,6.12
2023-07-24T10:51:58.966Z,5.00
2023-07-24T10:54:25.588Z,3.87
2023-07-24T10:57:03.009Z,2.83
2023-07-24T10:59:39.741Z,2.87
2023-07-24T11:02:07.106Z,2.65
2023-07-24T11:04:34.153Z,2.95
2023-07-24T11:07:01.485Z,3.15
2023-07-24T11:09:44.239Z,3.35
2023-07-24T11:12:17.366Z,3.60
2023-07-24T11:14:51.240Z,4.65
2023-07-24T11:17:17.905Z,7.22
2023-07-24T11:19:44.338Z,5.95
2023-07-24T11:22:10.837Z,8.50
2023-07-24T11:24:44.406Z,10.70
2023-07-24T11:27:15.445Z,7.93
2023-07-24T11:29:51.096Z,6.37
2023-07-24T11:32:20.946Z,4.82
2023-07-24T11:34:50.722Z,4.47
2023-07-24T11:37:17.102Z,7.90
2023-07-24T11:39:43.554Z,11.43
2023-07-24T11:42:10.032Z,13.60
2023-07-24T11:44:36.357Z,12.43
2023-07-24T11:47:06.112Z,11.85
2023-07-24T11:49:32.735Z,10.55
2023-07-24T11:52:06.771Z,11.50
2023-07-24T11:54:36.176Z,12.73
2023-07-24T11:57:02.616Z,13.57
2023-07-24T11:59:28.902Z,11.93
2023-07-24T12:01:55.242Z,10.40
2023-07-24T12:04:21.649Z,13.27
2023-07-24T12:06:48.334Z,14.63
2023-07-24T12:09:14.880Z,13.82
2023-07-24T12:11:45.445Z,14.45
2023-07-24T12:14:13.367Z,10.10
2023-07-24T12:16:43.012Z,8.25
2023-07-24T12:19:09.467Z,6.75
2023-07-24T12:21:35.829Z,7.05
2023-07-24T12:24:02.133Z,7.62
2023-07-24T12:26:28.660Z,7.32
2023-07-24T12:28:55.337Z,7.10
2023-07-24T12:31:21.698Z,6.57
2023-07-24T12:33:48.112Z,7.28
2023-07-24T12:36:14.477Z,9.77
2023-07-24T12:38:41.007Z,12.90
2023-07-24T12:41:07.537Z,13.18
2023-07-24T12:43:34.225Z,10.80
2023-07-24T12:46:00.536Z,9.70
2023-07-24T12:48:26.800Z,8.82
2023-07-24T12:50:53.219Z,8.02
2023-07-24T12:53:20.881Z,7.65
2023-07-24T12:55:57.541Z,7.00
2023-07-24T12:58:24.046Z,7.40
2023-07-24T13:00:50.512Z,7.57
2023-07-24T13:03:17.130Z,6.25
2023-07-24T13:05:43.837Z,4.90
2023-07-24T13:08:10.562Z,5.85
2023-07-24T13:10:37.731Z,5.65
2023-07-24T13:13:04.479Z,5.60
2023-07-24T13:15:32.480Z,5.05
2023-07-24T13:18:01.605Z,4.03
2023-07-24T13:20:34.249Z,4.85
2023-07-24T13:23:00.850Z,3.90
2023-07-24T13:25:27.170Z,3.97
2023-07-24T13:27:53.556Z,4.55
2023-07-24T13:30:19.917Z,3.75
2023-07-24T13:32:46.372Z,4.05
2023-07-24T13:35:12.820Z,4.55
2023-07-24T13:37:39.213Z,4.25
2023-07-24T13:40:06.850Z,4.00
2023-07-24T13:42:33.148Z,5.18
2023-07-24T13:44:59.537Z,6.80
2023-07-24T13:47:26.210Z,6.70
2023-07-24T13:49:52.547Z,9.05
2023-07-24T13:52:18.824Z,8.52
2023-07-24T13:54:45.150Z,7.95
2023-07-24T13:57:13.211Z,8.65
2023-07-24T13:59:40.197Z,7.78
2023-07-24T14:02:07.176Z,6.25
2023-07-24T14:04:33.617Z,6.28
2023-07-24T14:07:00.001Z,5.97
2023-07-24T14:09:26.284Z,5.90
2023-07-24T14:11:52.576Z,7.00
2023-07-24T14:14:19.090Z,8.45
2023-07-24T14:16:45.554Z,9.90
2023-07-24T14:19:11.882Z,9.77
2023-07-24T14:21:38.307Z,10.13
2023-07-24T14:24:05.059Z,9.63
2023-07-24T14:26:31.329Z,9.57
2023-07-24T14:28:57.727Z,9.90
2023-07-24T14:31:25.293Z,11.23
2023-07-24T14:33:51.688Z,13.60
2023-07-24T14:36:18.058Z,14.57
2023-07-24T14:38:44.354Z,13.15
2023-07-24T14:41:13.221Z,12.07
2023-07-24T14:43:44.577Z,14.95
2023-07-24T14:46:11.145Z,14.48
2023-07-24T14:48:37.580Z,14.00
2023-07-24T14:51:04.319Z,13.15
2023-07-24T14:53:30.667Z,13.05
2023-07-24T14:55:56.980Z,10.73
2023-07-24T14:58:23.278Z,10.23
2023-07-24T15:00:49.610Z,9.90
2023-07-24T15:03:16.000Z,7.55
2023-07-24T15:05:42.354Z,6.47
2023-07-24T15:08:08.696Z,5.50
2023-07-24T15:10:35.069Z,4.93
2023-07-24T15:13:01.607Z,4.40
2023-07-24T15:15:28.142Z,3.85
2023-07-24T15:17:56.301Z,3.35
2023-07-24T15:20:22.920Z,3.40
2023-07-24T15:22:49.251Z,3.20
2023-07-24T15:25:16.218Z,3.00
2023-07-24T15:27:42.993Z,2.60
2023-07-24T15:30:10.251Z,2.87
2023-07-24T15:32:36.670Z,4.93
2023-07-24T15:35:03.351Z,4.60
2023-07-24T15:37:32.704Z,4.03
2023-07-24T15:39:59.457Z,5.80
2023-07-24T15:42:26.013Z,8.75
2023-07-24T15:44:53.152Z,13.32
2023-07-24T15:47:19.586Z,12.40
2023-07-24T15:49:45.967Z,10.82
2023-07-24T15:52:12.433Z,9.45
2023-07-24T15:54:39.101Z,9.13
2023-07-24T15:57:05.633Z,8.35
2023-07-24T15:59:32.090Z,8.55
2023-07-24T16:01:58.344Z,8.27
2023-07-24T16:04:24.763Z,9.40
2023-07-24T16:06:51.236Z,9.23
2023-07-24T16:09:17.929Z,8.40
2023-07-24T16:11:46.139Z,6.47
2023-07-24T16:14:13.577Z,6.25
2023-07-24T16:16:39.879Z,7.05
2023-07-24T16:19:16.957Z,5.20
2023-07-24T16:21:44.201Z,4.85
2023-07-24T16:24:10.861Z,3.87
2023-07-24T16:26:38.732Z,3.85
2023-07-24T16:29:05.584Z,3.85
2023-07-24T16:31:35.835Z,4.15
2023-07-24T16:34:03.117Z,4.05
2023-07-24T16:36:34.278Z,4.28
2023-07-24T16:39:00.896Z,4.20
2023-07-24T16:41:27.629Z,4.70
2023-07-24T16:43:54.488Z,4.75
2023-07-24T16:48:50.911Z,5.03
2023-07-24T16:51:17.403Z,4.28
2023-07-24T16:53:43.951Z,4.30
2023-07-24T16:56:10.394Z,3.53
2023-07-24T16:58:36.814Z,3.22
2023-07-24T17:01:03.536Z,3.30
2023-07-24T17:03:29.969Z,3.12
2023-07-24T17:05:56.666Z,3.65
2023-07-24T17:28:56.749Z,3.90
2023-07-24T17:31:23.792Z,3.92
2023-07-24T17:33:50.245Z,3.65
2023-07-24T17:36:17.062Z,3.60
2023-07-24T17:38:43.344Z,3.83
2023-07-24T17:41:10.053Z,3.75
2023-07-24T17:43:36.506Z,3.92
2023-07-24T17:46:03.523Z,4.00
2023-07-24T17:48:29.954Z,3.62
2023-07-24T17:50:57.735Z,3.20
2023-07-24T17:53:25.097Z,3.20
2023-07-24T17:55:51.874Z,3.30
2023-07-24T17:58:18.687Z,3.40
2023-07-24T18:00:46.478Z,3.40
2023-07-24T18:03:13.440Z,3.30
2023-07-24T18:05:40.179Z,3.10
2023-07-24T18:08:06.861Z,3.33
2023-07-24T18:10:34.161Z,3.30
2023-07-24T18:13:00.780Z,3.30
2023-07-24T18:15:27.057Z,3.60
2023-07-24T18:17:53.622Z,4.07
2023-07-24T18:20:19.993Z,16.75
2023-07-24T18:22:46.867Z,4.32
2023-07-24T18:25:13.141Z,4.53
2023-07-24T18:27:39.488Z,4.62
2023-07-24T18:30:07.368Z,4.57
2023-07-24T18:32:33.855Z,4.85
2023-07-24T18:35:00.581Z,4.43
2023-07-24T18:37:26.896Z,4.90
2023-07-24T18:39:53.252Z,5.43
2023-07-24T18:42:19.505Z,5.90
2023-07-24T18:44:45.887Z,6.60
2023-07-24T18:47:12.265Z,5.85
2023-07-24T18:49:38.555Z,5.68
2023-07-24T18:52:05.605Z,5.87
2023-07-24T18:54:32.219Z,5.78
2023-07-24T18:56:58.557Z,5.80
2023-07-24T18:59:24.844Z,6.40
2023-07-24T19:01:51.642Z,7.87
2023-07-24T19:04:18.077Z,10.15
2023-07-24T19:06:44.457Z,10.60
2023-07-24T19:09:11.098Z,7.03
2023-07-24T19:11:37.442Z,4.65
2023-07-24T19:14:03.774Z,3.47
2023-07-24T19:16:30.519Z,4.62
2023-07-24T19:18:58.797Z,4.68
2023-07-24T19:21:25.137Z,7.90
2023-07-24T19:23:51.953Z,5.40
2023-07-24T19:26:18.440Z,5.05
2023-07-24T19:28:44.944Z,5.20
2023-07-24T19:31:11.393Z,5.28
2023-07-24T19:33:37.782Z,5.62
2023-07-24T19:36:04.978Z,4.85
2023-07-24T19:38:32.284Z,5.55
2023-07-24T19:41:00.148Z,5.20
2023-07-24T19:43:26.705Z,4.55
2023-07-24T19:45:53.590Z,4.32
2023-07-24T19:48:24.557Z,3.60
2023-07-24T19:50:55.051Z,3.60
2023-07-24T19:53:22.068Z,3.47
2023-07-24T19:55:49.136Z,3.80
2023-07-24T19:58:30.796Z,3.90
2023-07-24T20:00:59.987Z,3.85
2023-07-24T20:03:26.616Z,33.78
2023-07-24T20:06:01.429Z,3.92
2023-07-24T20:08:31.423Z,3.75
2023-07-24T20:11:00.517Z,3.60
2023-07-24T20:13:28.282Z,3.30
2023-07-24T20:15:55.483Z,3.03
2023-07-24T20:18:22.070Z,3.50
2023-07-24T20:20:49.358Z,3.17
2023-07-24T20:23:16.315Z,3.42
2023-07-24T20:25:46.529Z,3.65
2023-07-24T20:28:13.199Z,3.50
2023-07-24T20:30:40.153Z,3.75
2023-07-24T20:33:07.572Z,3.80
2023-07-24T20:35:34.446Z,3.85
2023-07-24T20:38:05.246Z,4.10
2023-07-24T20:40:32.946Z,4.53
2023-07-24T20:43:00.236Z,4.53
2023-07-24T20:45:27.125Z,4.65
2023-07-24T20:47:54.109Z,4.47
2023-07-24T20:50:20.763Z,4.70
2023-07-24T20:52:47.927Z,5.22
2023-07-24T20:55:14.666Z,5.22
2023-07-24T20:57:41.749Z,5.53
2023-07-24T21:00:09.106Z,5.55
2023-07-24T21:02:35.658Z,5.95
2023-07-24T21:05:04.282Z,6.15
2023-07-24T21:07:30.902Z,5.62
2023-07-24T21:09:59.120Z,5.03
2023-07-24T21:12:25.882Z,4.40
2023-07-24T21:14:52.569Z,3.72
2023-07-24T21:17:19.775Z,3.30
2023-07-24T21:19:46.950Z,3.47
2023-07-24T21:22:14.071Z,4.57
2023-07-24T21:24:40.518Z,5.12
2023-07-24T21:27:07.208Z,5.40
2023-07-24T21:29:34.659Z,5.10
2023-07-24T21:32:01.263Z,4.40
2023-07-24T21:34:27.654Z,3.90
2023-07-24T21:36:54.090Z,3.50
2023-07-24T21:39:21.103Z,3.70
2023-07-24T21:41:47.400Z,4.32
2023-07-24T21:44:13.780Z,5.15
2023-07-24T21:46:40.093Z,5.45
2023-07-24T21:49:06.425Z,5.47
2023-07-24T21:51:33.268Z,5.12
2023-07-24T21:54:00.206Z,4.60
2023-07-24T21:56:26.592Z,4.25
2023-07-24T21:58:55.534Z,4.07
2023-07-24T22:01:21.954Z,3.87
2023-07-24T22:03:48.422Z,3.78
2023-07-24T22:06:14.746Z,4.05
2023-07-24T22:08:41.308Z,3.95
2023-07-24T22:11:11.253Z,4.12
2023-07-24T22:13:37.658Z,4.53
2023-07-24T22:16:04.551Z,4.90
2023-07-24T22:18:30.811Z,4.53
2023-07-24T22:20:57.207Z,4.78
2023-07-24T22:23:24.427Z,4.25
2023-07-24T22:25:51.015Z,4.12
2023-07-24T22:28:17.454Z,4.37
2023-07-24T22:30:43.853Z,4.07
2023-07-24T22:33:10.140Z,4.28
2023-07-24T22:35:36.618Z,4.30
2023-07-24T22:38:02.938Z,4.10
2023-07-24T22:40:29.517Z,4.50
2023-07-24T22:42:55.805Z,4.20
2023-07-24T22:45:22.372Z,4.40
2023-07-24T22:47:49.000Z,4.43
2023-07-24T22:50:15.636Z,4.43
2023-07-24T22:52:42.141Z,4.28
2023-07-24T22:55:08.533Z,4.72
2023-07-24T22:57:34.905Z,5.20
2023-07-24T23:00:01.179Z,4.87
2023-07-24T23:02:27.482Z,4.65
2023-07-24T23:04:53.770Z,4.75
2023-07-24T23:07:20.067Z,4.60
2023-07-24T23:09:46.301Z,4.70
2023-07-24T23:12:13.100Z,4.72
2023-07-24T23:14:39.467Z,4.75
2023-07-24T23:17:06.048Z,4.80
2023-07-24T23:19:32.306Z,4.65
2023-07-24T23:21:58.714Z,4.53
2023-07-24T23:24:25.188Z,4.45
2023-07-24T23:26:51.692Z,4.43
2023-07-24T23:29:18.200Z,3.90
2023-07-24T23:31:44.670Z,4.10
2023-07-24T23:34:10.999Z,4.10
2023-07-24T23:36:37.451Z,3.90
2023-07-24T23:39:05.257Z,3.80
2023-07-24T23:41:31.955Z,4.05
2023-07-24T23:43:58.699Z,3.87
2023-07-24T23:46:25.217Z,3.80
2023-07-24T23:48:52.570Z,3.90
2023-07-24T23:51:19.783Z,3.75
2023-07-24T23:53:46.267Z,3.85
2023-07-24T23:56:12.844Z,4.10
2023-07-24T23:58:39.191Z,4.12
